Time;durP1;ratioP1;P1;durP2;ratioP2;P2;SDS_P1;SDS_P2;PMS_P1;PMS_P2;Temp;Humidity;BMP_temperature;BMP_pressure;BME280_temperature;BME280_humidity;BME280_pressure;Samples;Min_cycle;Max_cycle;Signal;HPM_P1;HPM_P2
2022/04/03 00:02:12;;;;;;;16.45;8.55;;;;;;;2.81;100.00;100327.16;4993641;28;20027;-68
2022/04/03 00:04:38;;;;;;;18.58;9.07;;;;;;;2.76;100.00;100328.91;4992614;28;20035;-68
2022/04/03 00:07:03;;;;;;;14.55;8.27;;;;;;;2.72;100.00;100328.88;4993509;28;20106;-67
2022/04/03 00:09:29;;;;;;;16.15;9.15;;;;;;;2.72;100.00;100329.78;4993483;28;20030;-67
2022/04/03 00:11:55;;;;;;;16.02;9.38;;;;;;;2.68;100.00;100335.00;4993581;28;20053;-67
2022/04/03 00:14:20;;;;;;;17.25;9.07;;;;;;;2.54;100.00;100323.56;4976018;28;20022;-67
2022/04/03 00:16:46;;;;;;;19.35;9.98;;;;;;;2.59;100.00;100336.72;4975773;28;20069;-68
2022/04/03 00:19:11;;;;;;;17.40;9.15;;;;;;;2.58;100.00;100330.59;4993347;28;20052;-68
2022/04/03 00:21:37;;;;;;;20.13;9.70;;;;;;;2.57;100.00;100341.94;4993746;28;20054;-67
2022/04/03 00:24:03;;;;;;;16.45;10.18;;;;;;;2.51;100.00;100331.44;4992861;28;20023;-67
2022/04/03 00:26:29;;;;;;;17.70;9.65;;;;;;;2.45;100.00;100323.53;4993263;28;20038;-67
2022/04/03 00:28:54;;;;;;;17.95;8.90;;;;;;;2.48;100.00;100344.56;4992521;28;20026;-67
2022/04/03 00:31:20;;;;;;;11.27;8.27;;;;;;;2.43;100.00;100332.25;4992948;28;20037;-67
2022/04/03 00:33:45;;;;;;;16.25;9.18;;;;;;;2.43;100.00;100341.03;4993186;28;20026;-67
2022/04/03 00:36:11;;;;;;;17.25;10.23;;;;;;;2.44;100.00;100344.50;4993017;28;20026;-67
2022/04/03 00:38:37;;;;;;;16.02;10.13;;;;;;;2.44;100.00;100342.78;4993407;28;20022;-67
2022/04/03 00:41:03;;;;;;;18.50;9.88;;;;;;;2.43;100.00;100348.91;4993161;28;20034;-67
2022/04/03 00:43:28;;;;;;;14.70;9.65;;;;;;;2.41;100.00;100345.38;4992754;28;20608;-67
2022/04/03 00:45:54;;;;;;;14.40;9.23;;;;;;;2.40;100.00;100341.00;4992642;28;20038;-67
2022/04/03 00:48:20;;;;;;;16.90;9.40;;;;;;;2.44;100.00;100350.66;4975483;28;20042;-67
2022/04/03 00:50:46;;;;;;;16.60;9.73;;;;;;;2.40;100.00;100346.25;4992499;28;20032;-67
2022/04/03 00:53:12;;;;;;;15.25;8.45;;;;;;;2.48;100.00;100352.44;4992372;28;20042;-67
2022/04/03 00:55:42;;;;;;;17.50;9.13;;;;;;;2.55;100.00;100338.44;4992572;28;20062;-67
2022/04/03 00:58:10;;;;;;;15.38;9.48;;;;;;;2.63;100.00;100347.25;4975488;28;20034;-67
2022/04/03 01:00:35;;;;;;;15.45;9.27;;;;;;;2.64;100.00;100330.63;4991500;28;20026;-67
2022/04/03 01:03:02;;;;;;;17.52;10.73;;;;;;;2.77;100.00;100347.28;4991327;28;20423;-68
2022/04/03 01:05:27;;;;;;;17.35;9.30;;;;;;;2.88;100.00;100347.34;4992606;28;20106;-67
2022/04/03 01:07:53;;;;;;;17.92;10.35;;;;;;;2.91;100.00;100347.34;4993004;28;20038;-67
2022/04/03 01:10:18;;;;;;;17.60;9.73;;;;;;;2.89;100.00;100347.34;4974780;28;20014;-68
2022/04/03 01:12:45;;;;;;;18.17;11.02;;;;;;;2.94;100.00;100352.59;4993013;28;20034;-68
2022/04/03 01:15:16;;;;;;;16.00;10.60;;;;;;;2.98;100.00;100350.00;4992188;28;20035;-68
2022/04/03 01:17:42;;;;;;;17.38;9.43;;;;;;;3.00;100.00;100358.75;4992753;28;20018;-68
2022/04/03 01:20:09;;;;;;;16.77;9.70;;;;;;;3.05;100.00;100350.91;4992711;28;20102;-68
2022/04/03 01:22:35;;;;;;;18.25;11.73;;;;;;;3.00;100.00;100339.50;4992260;28;20026;-68
2022/04/03 01:25:01;;;;;;;18.23;10.57;;;;;;;3.10;100.00;100351.78;4992356;28;20398;-67
2022/04/03 01:27:26;;;;;;;18.45;11.35;;;;;;;3.06;100.00;100350.03;4992708;28;20036;-67
2022/04/03 01:29:52;;;;;;;18.67;10.50;;;;;;;3.02;100.00;100335.09;4992158;28;20386;-67
2022/04/03 01:32:19;;;;;;;20.08;10.05;;;;;;;3.04;100.00;100346.50;4992467;28;20026;-67
2022/04/03 01:34:45;;;;;;;22.27;10.65;;;;;;;3.04;100.00;100347.38;4992188;28;20028;-67
2022/04/03 01:37:10;;;;;;;20.33;10.65;;;;;;;3.10;100.00;100352.66;4992569;28;20110;-68
2022/04/03 01:39:36;;;;;;;19.35;11.45;;;;;;;3.09;100.00;100355.28;4992502;28;20534;-67
2022/04/03 01:42:03;;;;;;;16.08;10.20;;;;;;;3.08;100.00;100350.91;4992307;28;20489;-67
2022/04/03 01:44:28;;;;;;;17.33;10.50;;;;;;;3.08;100.00;100354.38;4991796;28;20489;-67
2022/04/03 01:46:54;;;;;;;21.90;10.48;;;;;;;3.03;100.00;100344.75;4992348;28;20026;-68
2022/04/03 01:49:19;;;;;;;16.88;10.15;;;;;;;3.04;100.00;100341.25;4992281;28;20546;-67
2022/04/03 01:51:44;;;;;;;20.95;10.68;;;;;;;3.03;100.00;100342.13;4992189;28;20036;-67
2022/04/03 01:54:10;;;;;;;17.42;9.55;;;;;;;3.07;100.00;100347.38;4991102;28;20034;-67
2022/04/03 01:56:36;;;;;;;19.17;10.38;;;;;;;2.84;100.00;100309.66;4992338;28;20030;-67
2022/04/03 01:59:04;;;;;;;22.15;12.00;;;;;;;3.07;100.00;100344.75;4992041;28;20084;-68
2022/04/03 02:01:34;;;;;;;16.75;9.93;;;;;;;3.06;100.00;100348.28;4991785;28;20590;-68
2022/04/03 02:04:01;;;;;;;20.02;11.55;;;;;;;3.04;100.00;100347.38;4990948;28;20084;-68
2022/04/03 02:06:27;;;;;;;17.75;10.10;;;;;;;3.00;100.00;100350.00;4992192;28;20038;-68
2022/04/03 02:08:53;;;;;;;19.60;10.48;;;;;;;2.97;100.00;100350.84;4992021;28;20073;-68
2022/04/03 02:11:19;;;;;;;19.60;9.35;;;;;;;2.90;100.00;100342.97;4991592;28;20494;-67
2022/04/03 02:13:45;;;;;;;18.20;10.05;;;;;;;2.90;100.00;100349.06;4992097;28;20084;-67
2022/04/03 02:16:10;;;;;;;20.77;10.65;;;;;;;2.87;100.00;100356.09;4991976;28;20076;-67
2022/04/03 02:18:36;;;;;;;17.52;10.52;;;;;;;2.87;100.00;100348.22;4974597;28;20076;-68
2022/04/03 02:21:02;;;;;;;18.13;10.80;;;;;;;2.90;100.00;100358.72;5010589;28;20037;-68
2022/04/03 02:23:27;;;;;;;16.23;10.43;;;;;;;2.90;100.00;100354.34;5011757;28;20030;-68
2022/04/03 02:25:53;;;;;;;19.52;10.55;;;;;;;2.86;100.00;100342.09;4974701;28;20033;-68
2022/04/03 02:28:19;;;;;;;18.85;10.13;;;;;;;2.86;100.00;100343.81;4994111;28;20518;-68
2022/04/03 02:30:44;;;;;;;19.83;10.55;;;;;;;2.96;100.00;100354.38;4995445;28;20050;-68
2022/04/03 02:33:10;;;;;;;16.83;9.55;;;;;;;2.97;100.00;100350.84;4978473;28;20244;-68
2022/04/03 02:35:35;;;;;;;25.42;12.27;;;;;;;2.99;100.00;100356.13;4995647;28;20028;-68
2022/04/03 02:38:01;;;;;;;20.30;10.23;;;;;;;3.02;100.00;100353.50;4977960;28;20022;-68
2022/04/03 02:40:27;;;;;;;21.65;10.52;;;;;;;2.95;100.00;100335.97;4994395;28;20022;-68
2022/04/03 02:42:52;;;;;;;19.02;10.90;;;;;;;3.06;100.00;100350.91;4993271;28;20034;-68
2022/04/03 02:45:18;;;;;;;18.05;9.70;;;;;;;3.05;100.00;100354.38;4995572;28;20026;-68
2022/04/03 02:47:55;;;;;;;18.10;9.73;;;;;;;3.05;100.00;100356.16;4978102;28;20026;-68
2022/04/03 02:50:22;;;;;;;22.48;11.00;;;;;;;3.07;100.00;100351.75;4995292;28;20097;-68
2022/04/03 02:52:49;;;;;;;17.45;10.05;;;;;;;3.13;100.00;100362.31;4994556;28;20030;-68
2022/04/03 02:55:15;;;;;;;17.48;9.90;;;;;;;3.17;100.00;100361.41;4995210;28;20117;-67
2022/04/03 02:57:41;;;;;;;16.10;9.77;;;;;;;3.18;100.00;100356.16;4995184;28;20061;-67
2022/04/03 03:00:07;;;;;;;18.55;10.02;;;;;;;3.11;100.00;100354.41;4994971;28;20509;-67
2022/04/03 03:02:33;;;;;;;16.30;9.27;;;;;;;3.10;100.00;100347.41;4995061;28;20033;-67
2022/04/03 03:04:58;;;;;;;20.67;10.70;;;;;;;3.16;100.00;100354.44;4995067;28;20030;-67
2022/04/03 03:07:24;;;;;;;17.95;9.57;;;;;;;3.20;100.00;100359.69;4995167;28;20077;-67
2022/04/03 03:09:50;;;;;;;17.65;10.52;;;;;;;3.14;100.00;100343.91;4994318;28;20133;-67
2022/04/03 03:12:16;;;;;;;17.33;8.82;;;;;;;3.16;100.00;100346.53;4994970;28;20030;-67
2022/04/03 03:14:41;;;;;;;18.67;9.38;;;;;;;3.17;100.00;100348.28;4995008;28;20022;-67
2022/04/03 03:17:06;;;;;;;19.20;9.15;;;;;;;3.18;100.00;100350.06;5004248;28;20446;-67
2022/04/03 03:19:32;;;;;;;18.23;9.45;;;;;;;3.19;100.00;100351.81;4994725;28;20486;-67
2022/04/03 03:21:58;;;;;;;18.08;10.07;;;;;;;3.29;100.00;100369.34;4994793;28;20030;-67
2022/04/03 03:24:23;;;;;;;13.85;8.23;;;;;;;3.33;100.00;100357.94;4994401;28;20085;-67
2022/04/03 03:26:49;;;;;;;14.77;8.32;;;;;;;3.28;100.00;100367.59;4994627;28;20026;-67
2022/04/03 03:29:15;;;;;;;14.68;8.13;;;;;;;3.19;100.00;100352.69;4994569;28;20106;-67
2022/04/03 03:31:40;;;;;;;15.27;7.78;;;;;;;3.26;100.00;100369.34;4994611;28;20112;-68
2022/04/03 03:34:06;;;;;;;15.73;8.25;;;;;;;3.26;100.00;100366.72;4994486;28;20072;-68
2022/04/03 03:36:31;;;;;;;12.45;7.63;;;;;;;3.28;100.00;100370.22;4993518;28;20023;-68
2022/04/03 03:38:57;;;;;;;13.45;7.97;;;;;;;3.29;100.00;100366.72;4994170;28;20022;-68
2022/04/03 03:41:22;;;;;;;14.02;7.75;;;;;;;3.32;100.00;100369.34;4994337;28;20033;-68
2022/04/03 03:43:48;;;;;;;13.90;6.35;;;;;;;3.37;100.00;100368.50;4994362;28;20030;-67
2022/04/03 03:46:14;;;;;;;13.07;7.13;;;;;;;3.41;100.00;100369.38;4993512;28;20627;-68
2022/04/03 03:48:39;;;;;;;12.52;7.47;;;;;;;3.35;100.00;100370.22;4994156;28;20406;-68
2022/04/03 03:51:04;;;;;;;13.68;7.00;;;;;;;3.37;100.00;100364.97;4994182;28;20449;-68
2022/04/03 03:53:31;;;;;;;12.65;6.63;;;;;;;3.33;100.00;100350.06;4993503;28;20022;-68
2022/04/03 03:55:57;;;;;;;11.25;6.57;;;;;;;3.43;100.00;100378.13;4993312;28;20026;-68
2022/04/03 03:58:23;;;;;;;13.13;7.60;;;;;;;3.37;100.00;100364.97;4976559;28;20022;-68
2022/04/03 04:00:49;;;;;;;12.70;6.70;;;;;;;3.35;100.00;100377.22;4993618;28;20124;-68
2022/04/03 04:03:14;;;;;;;12.10;6.95;;;;;;;3.34;100.00;100378.13;4993902;28;20030;-68
2022/04/03 04:05:41;;;;;;;13.35;6.65;;;;;;;3.29;100.00;100375.50;4993743;28;20149;-68
2022/04/03 04:08:09;;;;;;;14.73;7.40;;;;;;;3.30;100.00;100377.22;4995382;28;20018;-68
2022/04/03 04:10:35;;;;;;;14.95;8.23;;;;;;;3.37;100.00;100378.13;5005854;28;20061;-68
2022/04/03 04:13:01;;;;;;;14.52;7.55;;;;;;;3.38;100.00;100379.88;4998495;28;20505;-68
2022/04/03 04:15:28;;;;;;;11.95;6.53;;;;;;;3.33;100.00;100387.75;4976024;28;20474;-68
2022/04/03 04:18:01;;;;;;;13.85;7.47;;;;;;;3.34;100.00;100388.63;4993073;28;20053;-68
2022/04/03 04:20:27;;;;;;;14.20;7.90;;;;;;;3.38;100.00;100379.88;4994028;28;20041;-68
2022/04/03 04:22:53;;;;;;;14.30;6.60;;;;;;;3.25;100.00;100370.19;4993259;28;20030;-67
2022/04/03 04:25:19;;;;;;;15.32;6.82;;;;;;;3.33;100.00;100382.50;4993369;28;20081;-67
2022/04/03 04:27:47;;;;;;;12.23;7.47;;;;;;;3.38;100.00;100387.75;4975979;28;20037;-68
2022/04/03 04:30:14;;;;;;;12.65;6.88;;;;;;;3.42;100.00;100395.66;4993526;28;20308;-68
2022/04/03 04:32:40;;;;;;;11.93;7.10;;;;;;;3.38;100.00;100385.13;4993353;28;20049;-68
2022/04/03 04:35:05;;;;;;;15.82;7.72;;;;;;;3.45;100.00;100394.78;4993079;28;20023;-68
2022/04/03 04:37:31;;;;;;;10.73;6.15;;;;;;;3.51;100.00;100394.81;4993207;28;20029;-68
2022/04/03 04:39:57;;;;;;;15.70;7.70;;;;;;;3.46;100.00;100389.53;4992792;28;20126;-68
2022/04/03 04:42:23;;;;;;;14.57;7.10;;;;;;;3.44;100.00;100395.66;4992752;28;20102;-68
2022/04/03 04:44:48;;;;;;;14.75;8.07;;;;;;;3.35;100.00;100385.13;4992831;28;20122;-68
2022/04/03 04:47:14;;;;;;;11.13;7.22;;;;;;;3.35;100.00;100395.63;4993165;28;20112;-68
2022/04/03 04:49:39;;;;;;;16.60;6.97;;;;;;;3.44;100.00;100406.19;4992760;28;20119;-68
2022/04/03 04:52:05;;;;;;;10.93;5.70;;;;;;;3.42;100.00;100406.19;4992365;28;20037;-68
2022/04/03 04:54:31;;;;;;;11.48;6.60;;;;;;;3.41;100.00;100411.44;4992359;28;20133;-68
2022/04/03 04:56:58;;;;;;;15.80;8.02;;;;;;;3.45;100.00;100411.44;4992746;28;20030;-67
2022/04/03 04:59:23;;;;;;;14.50;7.00;;;;;;;3.47;100.00;100421.97;4993094;28;20034;-67
2022/04/03 05:01:48;;;;;;;9.48;6.60;;;;;;;3.47;100.00;100406.19;4987364;28;20060;-67
2022/04/03 05:04:15;;;;;;;18.08;7.40;;;;;;;3.40;100.00;100393.91;4992845;28;20031;-67
2022/04/03 05:06:41;;;;;;;12.13;7.10;;;;;;;3.42;100.00;100407.94;4993002;28;20030;-67
2022/04/03 05:09:07;;;;;;;13.30;7.10;;;;;;;3.44;100.00;100411.44;5006136;28;20025;-67
2022/04/03 05:11:33;;;;;;;13.75;7.10;;;;;;;3.45;100.00;100423.69;5012375;28;20025;-67
2022/04/03 05:13:59;;;;;;;13.13;6.97;;;;;;;3.33;100.00;100407.88;5011551;28;20032;-67
2022/04/03 05:16:25;;;;;;;28.75;8.40;;;;;;;3.35;100.00;100411.41;4992247;28;20501;-67
2022/04/03 05:18:52;;;;;;;14.93;7.22;;;;;;;3.38;100.00;100416.66;4992304;28;20036;-67
2022/04/03 05:21:17;;;;;;;11.02;6.28;;;;;;;3.46;100.00;100431.59;4992543;28;20393;-67
2022/04/03 05:23:43;;;;;;;11.93;7.38;;;;;;;3.51;100.00;100429.00;4992419;28;20034;-68
2022/04/03 05:26:10;;;;;;;10.88;6.68;;;;;;;3.46;100.00;100426.34;4992907;28;20030;-68
2022/04/03 05:28:36;;;;;;;12.75;6.78;;;;;;;3.51;100.00;100435.13;4992521;28;20030;-68
2022/04/03 05:31:03;;;;;;;14.35;6.25;;;;;;;3.49;100.00;100441.25;4992400;28;20077;-68
2022/04/03 05:33:28;;;;;;;12.52;7.40;;;;;;;3.48;100.00;100423.72;4992416;28;20418;-68
2022/04/03 05:35:54;;;;;;;14.77;6.82;;;;;;;3.58;100.00;100450.03;4992229;28;20042;-68
2022/04/03 05:38:20;;;;;;;12.98;7.90;;;;;;;3.52;100.00;100436.00;4992477;28;20034;-68
2022/04/03 05:40:45;;;;;;;15.50;7.32;;;;;;;3.61;100.00;100446.53;4992108;28;20034;-68
2022/04/03 05:43:11;;;;;;;11.95;6.15;;;;;;;3.63;100.00;100444.78;4992108;28;20026;-68
2022/04/03 05:45:38;;;;;;;13.02;6.95;;;;;;;3.68;100.00;100448.31;4992098;28;20015;-68
2022/04/03 05:48:05;;;;;;;14.23;6.57;;;;;;;3.66;100.00;100445.66;4991865;28;20026;-68
2022/04/03 05:50:31;;;;;;;11.10;6.70;;;;;;;3.62;100.00;100450.94;4992109;28;20414;-68
2022/04/03 05:52:56;;;;;;;10.38;6.78;;;;;;;3.65;100.00;100451.81;4990737;28;20018;-68
2022/04/03 05:55:22;;;;;;;12.30;6.85;;;;;;;3.67;100.00;100457.94;4991998;28;20030;-67
2022/04/03 05:57:50;;;;;;;12.05;7.13;;;;;;;3.71;100.00;100454.44;4991329;28;20164;-67
2022/04/03 06:00:17;;;;;;;12.35;6.53;;;;;;;3.74;100.00;100458.84;4991904;28;20482;-68
2022/04/03 06:02:54;;;;;;;13.55;6.45;;;;;;;3.75;100.00;100460.59;4990797;28;20022;-68
2022/04/03 06:05:22;;;;;;;11.05;7.15;;;;;;;3.71;100.00;100470.22;5005115;28;20152;-68
2022/04/03 06:07:48;;;;;;;11.27;6.53;;;;;;;3.71;100.00;100471.97;5004801;28;20026;-68
2022/04/03 06:10:14;;;;;;;10.68;6.50;;;;;;;3.66;100.00;100457.94;4992001;28;20023;-68
2022/04/03 06:13:03;;;;;;;13.65;7.18;;;;;;;3.77;100.00;100485.16;4991497;28;20470;-68
2022/04/03 06:15:34;;;;;;;12.02;6.80;;;;;;;3.80;100.00;100482.53;4955163;28;20070;-68
2022/04/03 06:18:01;;;;;;;13.00;7.28;;;;;;;3.84;100.00;100484.28;4987181;28;20027;-67
2022/04/03 06:20:27;;;;;;;13.80;6.78;;;;;;;3.77;100.00;100474.63;4991884;28;20027;-67
2022/04/03 06:22:53;;;;;;;14.07;6.40;;;;;;;3.99;100.00;100492.19;4974315;28;20117;-67
2022/04/03 06:25:20;;;;;;;10.48;6.28;;;;;;;3.99;100.00;100494.81;4991765;28;20457;-67
2022/04/03 06:27:45;;;;;;;11.75;6.63;;;;;;;3.97;100.00;100493.94;4991434;28;20031;-67
2022/04/03 06:30:11;;;;;;;14.30;7.00;;;;;;;3.91;100.00;100499.19;4991659;28;20780;-67
2022/04/03 06:32:37;;;;;;;10.23;6.85;;;;;;;3.97;100.00;100502.72;4974480;28;20562;-67
2022/04/03 06:35:02;;;;;;;13.10;7.78;;;;;;;3.96;100.00;100494.81;4991733;28;20042;-67
2022/04/03 06:37:28;;;;;;;13.70;6.75;;;;;;;3.95;100.00;100500.97;4991869;28;20497;-67
2022/04/03 06:39:53;;;;;;;9.85;5.82;;;;;;;3.91;99.78;100505.34;4990831;28;20018;-68
2022/04/03 06:42:19;;;;;;;11.52;5.68;;;;;;;3.92;98.77;100500.97;4991803;28;20026;-68
2022/04/03 06:44:44;;;;;;;10.93;5.78;;;;;;;3.87;98.53;100505.34;4991536;28;20505;-68
2022/04/03 06:47:10;;;;;;;10.43;5.95;;;;;;;3.86;97.50;100514.09;4991759;28;20029;-67
2022/04/03 06:49:36;;;;;;;11.20;6.20;;;;;;;3.95;96.82;100512.34;4991327;28;20053;-67
2022/04/03 06:52:02;;;;;;;10.80;5.05;;;;;;;4.03;96.37;100510.66;4991542;28;20193;-67
2022/04/03 06:54:28;;;;;;;9.98;4.88;;;;;;;4.11;96.54;100509.75;4990731;28;20026;-67
2022/04/03 06:56:53;;;;;;;8.93;5.50;;;;;;;4.25;95.99;100516.78;4991782;28;20109;-67
2022/04/03 06:59:19;;;;;;;10.60;5.65;;;;;;;4.35;95.57;100515.91;4991595;28;20663;-67
2022/04/03 07:01:44;;;;;;;9.45;6.13;;;;;;;4.45;95.36;100516.81;4988123;28;20031;-67
2022/04/03 07:04:10;;;;;;;10.82;5.82;;;;;;;4.57;95.77;100520.31;4971822;28;20038;-67
2022/04/03 07:06:35;;;;;;;14.35;7.13;;;;;;;4.65;95.55;100525.56;4972115;28;20114;-67
2022/04/03 07:09:00;;;;;;;10.77;6.72;;;;;;;4.66;95.33;100530.81;4988338;28;20035;-67
2022/04/03 07:11:26;;;;;;;9.95;5.90;;;;;;;4.77;95.42;100529.09;4991691;28;20026;-67
2022/04/03 07:13:51;;;;;;;11.77;6.10;;;;;;;4.89;95.49;100526.41;4992044;28;20011;-67
2022/04/03 07:16:17;;;;;;;11.93;6.85;;;;;;;4.96;94.88;100529.91;4995036;28;20034;-67
2022/04/03 07:18:42;;;;;;;12.95;6.55;;;;;;;5.01;94.48;100512.31;4994985;28;20035;-67
2022/04/03 07:21:08;;;;;;;10.38;5.65;;;;;;;5.14;93.89;100535.16;4994794;28;20105;-67
2022/04/03 07:23:33;;;;;;;10.90;5.15;;;;;;;5.08;91.81;100543.06;4994577;28;20033;-67
2022/04/03 07:25:59;;;;;;;10.40;5.00;;;;;;;5.02;90.04;100538.72;4976724;28;20038;-67
2022/04/03 07:28:24;;;;;;;14.23;5.38;;;;;;;5.30;90.67;100544.78;4994878;28;20034;-67
2022/04/03 07:30:49;;;;;;;11.75;5.60;;;;;;;5.65;92.03;100536.72;4994647;28;20033;-67
2022/04/03 07:33:15;;;;;;;12.00;6.25;;;;;;;5.98;91.12;100539.25;4994581;28;20104;-67
2022/04/03 07:35:41;;;;;;;10.13;5.93;;;;;;;6.13;88.20;100550.56;4994391;28;20038;-67
2022/04/03 07:38:06;;;;;;;10.88;6.35;;;;;;;6.00;85.97;100548.00;4994085;28;20037;-67
2022/04/03 07:40:32;;;;;;;10.45;5.97;;;;;;;6.14;85.29;100556.72;4993194;28;20026;-67
2022/04/03 07:42:58;;;;;;;8.93;5.30;;;;;;;6.07;84.59;100555.00;4994247;28;20508;-67
2022/04/03 07:45:24;;;;;;;8.63;4.53;;;;;;;6.01;83.65;100555.06;4976225;28;20026;-67
2022/04/03 07:47:50;;;;;;;7.13;4.28;;;;;;;6.08;83.12;100557.63;4994483;28;20088;-67
2022/04/03 07:50:21;;;;;;;11.68;5.38;;;;;;;5.93;81.56;100564.78;4993219;28;20043;-67
2022/04/03 07:52:48;;;;;;;7.85;4.13;;;;;;;5.74;81.26;100556.03;4993700;28;20022;-67
2022/04/03 07:55:14;;;;;;;9.00;4.28;;;;;;;5.76;82.36;100549.00;4994165;28;20033;-67
2022/04/03 07:57:40;;;;;;;7.47;4.35;;;;;;;5.96;82.78;100562.13;5006089;28;20076;-67
2022/04/03 08:00:09;;;;;;;9.15;4.90;;;;;;;6.10;82.44;100565.53;5011908;28;20034;-67
2022/04/03 08:02:35;;;;;;;7.10;4.55;;;;;;;6.27;80.34;100558.41;4993911;28;20038;-67
2022/04/03 08:05:00;;;;;;;8.90;5.38;;;;;;;6.53;80.77;100567.03;4993418;28;20485;-67
2022/04/03 08:07:45;;;;;;;8.82;5.95;;;;;;;7.10;81.42;100568.28;4994158;28;20122;-67
2022/04/03 08:10:13;;;;;;;8.98;4.68;;;;;;;7.43;78.72;100566.16;4993869;28;20421;-67
2022/04/03 08:12:41;;;;;;;8.07;4.90;;;;;;;8.21;75.77;100563.38;4994109;28;20038;-67
2022/04/03 08:15:08;;;;;;;10.15;5.03;;;;;;;9.13;69.25;100561.00;4993644;28;20030;-67
2022/04/03 08:17:34;;;;;;;9.43;5.03;;;;;;;9.55;65.50;100564.63;4993838;28;20052;-67
2022/04/03 08:20:01;;;;;;;7.30;4.78;;;;;;;10.45;62.42;100568.00;4993074;28;20034;-67
2022/04/03 08:22:27;;;;;;;9.55;5.07;;;;;;;11.29;59.36;100569.41;4992632;28;20023;-67
2022/04/03 08:24:53;;;;;;;7.82;4.90;;;;;;;11.31;56.24;100575.59;4991649;28;20549;-67
2022/04/03 08:27:18;;;;;;;9.38;4.97;;;;;;;11.85;57.02;100577.63;4993523;28;20109;-67
2022/04/03 08:29:44;;;;;;;9.20;5.93;;;;;;;12.37;55.87;100576.94;4975683;28;20030;-67
2022/04/03 08:32:10;;;;;;;9.57;5.45;;;;;;;12.80;54.05;100577.31;4991844;28;20026;-67
2022/04/03 08:34:35;;;;;;;8.80;5.28;;;;;;;13.11;54.48;100570.06;4993250;28;20057;-67
2022/04/03 08:37:01;;;;;;;9.27;4.82;;;;;;;13.56;55.62;100580.09;4993551;28;20061;-67
2022/04/03 08:39:26;;;;;;;9.25;4.82;;;;;;;13.30;50.31;100577.44;4993206;28;20026;-67
2022/04/03 08:41:53;;;;;;;7.78;4.25;;;;;;;13.23;51.43;100593.69;4993153;28;20022;-67
2022/04/03 08:44:19;;;;;;;8.60;4.50;;;;;;;13.29;51.27;100586.41;4991578;28;20076;-67
2022/04/03 08:46:48;;;;;;;7.70;4.28;;;;;;;13.10;51.89;100592.38;4992210;28;20030;-67
2022/04/03 08:49:15;;;;;;;7.28;4.57;;;;;;;12.73;50.34;100594.50;4992925;28;20101;-67
2022/04/03 08:51:41;;;;;;;8.65;4.80;;;;;;;12.66;53.21;100595.59;4993483;28;20037;-67
2022/04/03 08:54:07;;;;;;;7.20;4.43;;;;;;;13.09;51.93;100595.97;4993675;28;20026;-66
2022/04/03 08:56:33;;;;;;;6.63;3.85;;;;;;;13.41;48.98;100588.66;4993230;28;20030;-66
2022/04/03 08:58:58;;;;;;;5.60;3.50;;;;;;;13.55;49.71;100583.69;4992722;28;20450;-66
2022/04/03 09:01:24;;;;;;;6.25;3.42;;;;;;;13.26;47.34;100576.72;4991462;28;20492;-67
2022/04/03 09:03:50;;;;;;;7.57;4.05;;;;;;;13.77;48.29;100579.31;4992057;28;20031;-66
2022/04/03 09:06:20;;;;;;;7.70;3.92;;;;;;;13.96;46.62;100585.72;4992829;28;20474;-66
2022/04/03 09:08:47;;;;;;;6.95;4.25;;;;;;;14.45;46.51;100586.50;4992725;28;20122;-66
2022/04/03 09:11:13;;;;;;;7.03;3.53;;;;;;;15.01;45.60;100592.25;4992649;28;20053;-66
2022/04/03 09:13:40;;;;;;;7.13;3.17;;;;;;;15.34;43.51;100585.47;4992737;28;20382;-66
2022/04/03 09:16:06;;;;;;;6.88;3.40;;;;;;;14.81;45.14;100591.34;4992457;28;20581;-66
2022/04/03 09:18:51;;;;;;;5.55;3.25;;;;;;;15.06;44.38;100595.63;4973134;28;20030;-66
2022/04/03 09:21:24;;;;;;;5.10;2.95;;;;;;;15.01;42.93;100592.25;4973815;28;20029;-67
2022/04/03 09:23:56;;;;;;;9.15;3.15;;;;;;;15.07;43.85;100596.50;4990530;28;20030;-67
2022/04/03 09:26:21;;;;;;;3.92;2.47;;;;;;;13.96;44.46;100593.75;4974670;28;20096;-67
2022/04/03 09:28:47;;;;;;;5.22;3.40;;;;;;;12.52;48.73;100588.97;4992365;28;20481;-67
2022/04/03 09:31:30;;;;;;;4.75;3.03;;;;;;;12.40;46.51;100598.22;4992462;28;20029;-67
2022/04/03 09:34:07;;;;;;;8.60;3.90;;;;;;;11.93;47.73;100595.22;4992578;28;20379;-67
2022/04/03 09:36:34;;;;;;;3.83;2.70;;;;;;;11.86;47.43;100590.03;4991836;28;20513;-67
2022/04/03 09:39:16;;;;;;;6.13;3.70;;;;;;;11.57;50.95;100586.41;4992173;28;20031;-67
2022/04/03 09:42:01;;;;;;;4.45;3.10;;;;;;;11.30;50.74;100597.81;4992172;28;20121;-67
2022/04/03 09:44:29;;;;;;;5.93;3.70;;;;;;;11.10;50.65;100595.69;4991707;28;20030;-67
2022/04/03 09:47:31;;;;;;;6.65;3.40;;;;;;;10.90;53.21;100602.41;4991793;28;20034;-67
2022/04/03 09:50:00;;;;;;;6.63;3.38;;;;;;;10.85;51.48;100599.84;4919138;29;20059;-67
2022/04/03 09:52:47;;;;;;;11.05;5.00;;;;;;;10.31;50.67;100599.34;4961624;28;20039;-67
2022/04/03 09:55:24;;;;;;;6.25;3.63;;;;;;;10.06;53.80;100600.78;4972336;28;20023;-67
2022/04/03 09:58:02;;;;;;;8.30;4.55;;;;;;;9.89;51.31;100607.31;4972726;28;20050;-67
2022/04/03 10:00:30;;;;;;;10.55;4.57;;;;;;;9.79;54.86;100614.59;4972411;28;20041;-67
2022/04/03 10:03:00;;;;;;;5.13;3.40;;;;;;;9.49;53.58;100607.22;4972839;28;20395;-67
2022/04/03 10:05:30;;;;;;;6.35;4.05;;;;;;;9.48;56.31;100610.78;4972013;28;20065;-67
2022/04/03 10:07:59;;;;;;;8.48;4.40;;;;;;;9.42;55.35;100610.91;4981846;28;20723;-67
2022/04/03 10:10:28;;;;;;;9.85;4.22;;;;;;;8.92;57.41;100613.56;4972579;28;20049;-68
2022/04/03 10:12:58;;;;;;;6.53;4.28;;;;;;;8.82;56.30;100609.31;4973091;28;20520;-67
2022/04/03 10:15:24;;;;;;;11.13;4.47;;;;;;;8.74;58.67;100614.75;4972335;28;20057;-67
2022/04/03 10:17:50;;;;;;;7.43;3.75;;;;;;;8.65;57.83;100611.38;4972778;28;20030;-67
2022/04/03 10:20:16;;;;;;;7.40;4.03;;;;;;;8.54;57.50;100615.94;4972392;28;20102;-65
2022/04/03 10:22:45;;;;;;;6.13;3.88;;;;;;;8.53;58.22;100608.91;4973002;28;20030;-66
2022/04/03 10:25:15;;;;;;;6.57;4.18;;;;;;;8.52;58.23;100612.41;4972354;28;20031;-66
2022/04/03 10:27:44;;;;;;;11.25;5.53;;;;;;;8.66;58.88;100605.16;4972619;28;20554;-66
2022/04/03 10:30:10;;;;;;;8.43;4.32;;;;;;;8.64;58.01;100622.84;4972114;28;20030;-66
2022/04/03 10:32:37;;;;;;;7.07;3.95;;;;;;;8.52;56.63;100602.69;4971363;28;20386;-66
2022/04/03 10:35:09;;;;;;;5.72;3.22;;;;;;;8.52;55.68;100613.31;4971930;28;20023;-66
2022/04/03 10:37:36;;;;;;;7.22;3.40;;;;;;;8.51;55.69;100616.00;4972281;28;20077;-66
2022/04/03 10:40:18;;;;;;;5.85;3.55;;;;;;;8.52;55.88;100617.72;4972028;28;20054;-66
2022/04/03 10:42:58;;;;;;;5.90;3.17;;;;;;;8.55;56.31;100623.00;4972322;28;20035;-66
2022/04/03 10:45:37;;;;;;;6.70;3.88;;;;;;;8.55;54.57;100617.72;4971586;28;20035;-66
2022/04/03 10:48:24;;;;;;;5.05;3.28;;;;;;;8.46;52.65;100623.13;4972464;28;20113;-66
2022/04/03 10:51:08;;;;;;;5.30;3.33;;;;;;;8.28;53.30;100618.97;4976047;28;20441;-66
2022/04/03 10:53:36;;;;;;;5.82;3.58;;;;;;;8.11;51.72;100617.38;4975029;28;20029;-67
2022/04/03 10:56:24;;;;;;;7.13;3.83;;;;;;;8.20;52.89;100625.22;4975729;28;20534;-68
2022/04/03 10:58:51;;;;;;;9.75;3.72;;;;;;;8.23;52.13;100619.88;4976084;28;20019;-68
2022/04/03 11:01:24;;;;;;;5.95;4.10;;;;;;;8.34;53.66;100621.53;4975251;28;20446;-68
2022/04/03 11:03:57;;;;;;;4.85;3.38;;;;;;;8.23;53.24;100614.59;4975737;28;20479;-68
2022/04/03 11:06:43;;;;;;;6.32;3.53;;;;;;;8.05;53.67;100621.88;4960819;28;20401;-67
2022/04/03 11:09:22;;;;;;;5.68;3.15;;;;;;;7.94;54.66;100618.50;4975814;28;20027;-67
2022/04/03 11:11:49;;;;;;;5.10;3.17;;;;;;;7.87;56.16;100614.16;4975646;28;20027;-68
2022/04/03 11:14:51;;;;;;;5.88;3.35;;;;;;;7.75;57.70;100622.28;4975774;28;20022;-68
2022/04/03 11:17:37;;;;;;;7.00;3.55;;;;;;;7.67;55.35;100623.25;4975575;28;20061;-66
2022/04/03 11:20:03;;;;;;;5.55;2.78;;;;;;;7.65;55.67;100599.44;4974238;28;20034;-68
2022/04/03 11:22:31;;;;;;;5.15;2.65;;;;;;;7.81;54.80;100614.25;4975191;28;20038;-66
2022/04/03 11:24:57;;;;;;;5.63;3.13;;;;;;;7.83;56.62;100599.22;4975152;28;20030;-66